createdAt,value
2022-11-17T00:00:44.360Z,99832.69
2022-11-17T00:03:16.160Z,99829.06
2022-11-17T00:05:44.739Z,99833.28
2022-11-17T00:08:11.484Z,99839.19
2022-11-17T00:10:38.030Z,99828.56
2022-11-17T00:13:27.876Z,99822.88
2022-11-17T00:15:54.441Z,99823.25
2022-11-17T00:18:39.603Z,99823.25
2022-11-17T00:21:23.416Z,99819.09
2022-11-17T00:23:50.743Z,99808.25
2022-11-17T00:26:28.289Z,99800.25
2022-11-17T00:29:04.600Z,99793.25
2022-11-17T00:32:00.643Z,99801.16
2022-11-17T00:34:27.655Z,99796.47
2022-11-17T00:36:55.404Z,99781.59
2022-11-17T00:39:24.552Z,99804.00
2022-11-17T00:41:51.256Z,99791.47
2022-11-17T00:44:17.871Z,99781.31
2022-11-17T00:46:45.218Z,99789.81
2022-11-17T00:49:12.742Z,99780.47
2022-11-17T00:51:39.590Z,99791.66
2022-11-17T00:54:11.658Z,99779.66
2022-11-17T00:56:38.974Z,99781.97
2022-11-17T00:59:05.848Z,99779.03
2022-11-17T01:01:33.137Z,99785.38
2022-11-17T01:04:04.728Z,99773.25
2022-11-17T01:06:48.679Z,99762.94
2022-11-17T01:09:23.693Z,99761.66
2022-11-17T01:11:56.921Z,99762.88
2022-11-17T01:14:30.222Z,99767.75
2022-11-17T01:16:56.963Z,99761.66
2022-11-17T01:19:24.788Z,99762.75
2022-11-17T01:21:51.895Z,99748.22
2022-11-17T01:24:18.866Z,99749.94
2022-11-17T01:26:46.879Z,99750.09
2022-11-17T01:29:19.276Z,99764.63
2022-11-17T01:31:51.981Z,99764.63
2022-11-17T01:34:19.076Z,99761.97
2022-11-17T01:37:04.635Z,99753.59
2022-11-17T01:39:32.388Z,99751.84
2022-11-17T01:42:11.584Z,99757.31
2022-11-17T01:45:14.840Z,99745.56
2022-11-17T01:48:01.520Z,99743.22
2022-11-17T01:50:49.343Z,99742.13
2022-11-17T01:53:22.221Z,99739.47
2022-11-17T01:56:02.514Z,99724.91
2022-11-17T01:58:41.613Z,99735.41
2022-11-17T02:01:08.353Z,99720.16
2022-11-17T02:03:39.797Z,99708.91
2022-11-17T02:06:26.975Z,99722.25
2022-11-17T02:08:56.628Z,99707.09
2022-11-17T02:11:25.236Z,99712.41
2022-11-17T02:13:56.127Z,99701.88
2022-11-17T02:16:22.845Z,99692.09
2022-11-17T02:18:49.733Z,99696.69
2022-11-17T02:21:25.260Z,99699.38
2022-11-17T02:24:13.310Z,99686.16
2022-11-17T02:28:03.260Z,99701.88
2022-11-17T02:31:11.856Z,99688.00
2022-11-17T02:33:56.827Z,99687.38
2022-11-17T02:36:48.314Z,99680.22
2022-11-17T02:39:31.340Z,99678.94
2022-11-17T02:42:54.599Z,99681.41
2022-11-17T02:45:33.489Z,99663.03
2022-11-17T02:48:13.745Z,99662.19
2022-11-17T02:50:46.633Z,99662.31
2022-11-17T02:53:16.445Z,99667.03
2022-11-17T02:55:51.936Z,99666.19
2022-11-17T02:58:19.658Z,99663.53
2022-11-17T03:01:37.078Z,99667.03
2022-11-17T03:04:32.024Z,99643.53
2022-11-17T03:07:16.822Z,99661.84
2022-11-17T03:10:02.933Z,99664.63
2022-11-17T03:13:00.424Z,99654.25
2022-11-17T03:15:53.883Z,99652.66
2022-11-17T03:18:50.419Z,99643.84
2022-11-17T03:21:27.833Z,99648.78
2022-11-17T03:24:21.553Z,99656.75
2022-11-17T03:27:08.092Z,99657.03
2022-11-17T03:29:42.481Z,99651.09
2022-11-17T03:32:16.034Z,99650.25
2022-11-17T03:34:57.209Z,99648.59
2022-11-17T03:37:33.105Z,99653.19
2022-11-17T03:40:10.700Z,99639.88
2022-11-17T03:42:47.195Z,99645.81
2022-11-17T03:45:27.714Z,99643.53
2022-11-17T03:48:33.611Z,99655.41
2022-11-17T03:51:24.451Z,99643.09
2022-11-17T03:53:54.501Z,99634.13
2022-11-17T03:56:52.606Z,99638.09
2022-11-17T03:59:43.087Z,99622.50
2022-11-17T04:02:18.896Z,99603.03
2022-11-17T04:05:04.556Z,99635.09
2022-11-17T04:07:37.195Z,99621.78
2022-11-17T04:10:08.191Z,99618.53
2022-11-17T04:12:53.418Z,99616.50
2022-11-17T04:15:38.562Z,99606.59
2022-11-17T04:18:08.593Z,99607.69
2022-11-17T04:20:38.443Z,99594.38
2022-11-17T04:23:11.593Z,99585.91
2022-11-17T04:26:04.931Z,99603.59
2022-11-17T04:28:37.069Z,99609.19
2022-11-17T04:31:31.248Z,99604.81
2022-11-17T04:34:08.790Z,99593.78
2022-11-17T04:36:46.110Z,99600.94
2022-11-17T04:39:16.173Z,99591.13
2022-11-17T04:42:03.083Z,99583.03
2022-11-17T04:44:32.578Z,99587.34
2022-11-17T04:47:03.011Z,99583.03
2022-11-17T04:49:32.552Z,99593.41
2022-11-17T04:51:59.263Z,99595.22
2022-11-17T04:54:25.917Z,99590.16
2022-11-17T04:56:57.319Z,99585.78
2022-11-17T04:59:24.430Z,99586.78
2022-11-17T05:01:51.697Z,99582.28
2022-11-17T05:04:39.959Z,99573.59
2022-11-17T05:07:09.236Z,99560.66
2022-11-17T05:09:36.009Z,99567.22
2022-11-17T05:12:21.783Z,99583.19
2022-11-17T05:14:50.179Z,99569.88
2022-11-17T05:17:18.116Z,99571.09
2022-11-17T05:19:48.416Z,99568.91
2022-11-17T05:22:43.224Z,99558.28
2022-11-17T05:25:10.483Z,99572.81
2022-11-17T05:27:38.167Z,99568.31
2022-11-17T05:30:08.510Z,99562.00
2022-11-17T05:32:35.296Z,99547.75
2022-11-17T05:35:02.135Z,99566.84
2022-11-17T05:37:28.881Z,99567.47
2022-11-17T05:39:57.961Z,99560.94
2022-11-17T05:42:24.714Z,99539.50
2022-11-17T05:44:51.382Z,99549.03
2022-11-17T05:47:18.622Z,99557.91
2022-11-17T05:49:45.581Z,99548.19
2022-11-17T05:52:12.238Z,99527.06
2022-11-17T05:54:38.859Z,99534.06
2022-11-17T05:57:21.231Z,99545.53
2022-11-17T06:00:01.638Z,99544.44
2022-11-17T06:02:51.475Z,99543.38
2022-11-17T06:05:20.486Z,99537.50
2022-11-17T06:07:48.241Z,99522.47
2022-11-17T06:10:15.107Z,99525.78
2022-11-17T06:12:41.752Z,99524.47
2022-11-17T06:15:09.471Z,99516.88
2022-11-17T06:17:49.854Z,99523.44
2022-11-17T06:20:24.475Z,99530.06
2022-11-17T06:22:51.807Z,99521.25
2022-11-17T06:25:20.630Z,99528.84
2022-11-17T06:27:50.550Z,99528.56
2022-11-17T06:30:18.249Z,99522.03
2022-11-17T06:33:02.084Z,99532.41
2022-11-17T06:35:33.415Z,99524.31
2022-11-17T06:38:02.171Z,99524.19
2022-11-17T06:40:31.986Z,99523.41
2022-11-17T06:43:08.180Z,99531.13
2022-11-17T06:45:40.234Z,99536.22
2022-11-17T06:48:10.078Z,99538.16
2022-11-17T06:50:37.300Z,99542.97
2022-11-17T06:53:09.354Z,99545.88
2022-11-17T07:33:31.298Z,99531.63
2022-11-17T07:57:39.341Z,99507.91
2022-11-17T09:05:02.447Z,99482.00
2022-11-17T09:07:34.892Z,99463.09
2022-11-17T09:10:04.705Z,99478.81
2022-11-17T09:39:31.220Z,99478.34
2022-11-17T09:41:58.518Z,99486.63
2022-11-17T09:44:42.016Z,99491.97
2022-11-17T09:48:12.357Z,99475.16
2022-11-17T09:50:47.089Z,99469.94
2022-11-17T09:53:54.086Z,99489.06
2022-11-17T09:56:22.000Z,99465.91
2022-11-17T09:59:05.090Z,99471.34
2022-11-17T10:01:32.223Z,99458.44
2022-11-17T10:04:01.307Z,99464.06
2022-11-17T10:06:31.876Z,99472.88
2022-11-17T10:09:25.739Z,99457.03
2022-11-17T10:12:07.785Z,99451.44
2022-11-17T10:14:39.467Z,99458.84
2022-11-17T10:17:06.763Z,99445.41
2022-11-17T10:19:38.608Z,99445.81
2022-11-17T10:22:05.583Z,99441.75
2022-11-17T10:24:42.356Z,99431.22
2022-11-17T10:27:26.953Z,99446.25
2022-11-17T10:30:01.850Z,99440.09
2022-11-17T10:32:48.305Z,99436.00
2022-11-17T10:35:22.921Z,99441.63
2022-11-17T10:37:58.965Z,99408.09
2022-11-17T10:40:39.777Z,99424.22
2022-11-17T10:43:12.314Z,99423.81
2022-11-17T10:45:52.759Z,99421.00
2022-11-17T10:48:39.479Z,99421.84
2022-11-17T10:51:19.485Z,99423.69
2022-11-17T10:59:58.722Z,99413.84
2022-11-17T11:51:38.795Z,99382.16
2022-11-17T12:24:18.746Z,99385.66
2022-11-17T12:26:48.414Z,99366.84
2022-11-17T12:29:21.265Z,99376.13
2022-11-17T12:32:28.889Z,99386.66
2022-11-17T12:35:26.865Z,99385.97
2022-11-17T12:38:15.313Z,99383.16
2022-11-17T12:40:48.280Z,99385.66
2022-11-17T12:43:17.479Z,99394.78
2022-11-17T12:45:53.388Z,99384.53
2022-11-17T12:48:34.853Z,99393.66
2022-11-17T12:51:54.733Z,99399.13
2022-11-17T12:55:44.740Z,99402.50
2022-11-17T12:58:48.260Z,99395.63
2022-11-17T13:01:34.260Z,99388.22
2022-11-17T13:04:49.163Z,99374.47
2022-11-17T13:07:25.403Z,99384.84
2022-11-17T13:09:57.248Z,99389.75
2022-11-17T13:12:28.731Z,99373.16
2022-11-17T13:15:03.200Z,99372.22
2022-11-17T13:17:48.294Z,99381.75
2022-11-17T13:20:30.003Z,99390.59
2022-11-17T13:23:12.157Z,99381.19
2022-11-17T13:25:39.151Z,99378.94
2022-11-17T13:28:05.952Z,99390.44
2022-11-17T13:30:33.439Z,99387.63
2022-11-17T13:33:04.430Z,99380.59
2022-11-17T13:35:35.831Z,99387.50
2022-11-17T13:38:11.569Z,99387.50
2022-11-17T13:40:41.905Z,99391.44
2022-11-17T13:43:22.046Z,99380.91
2022-11-17T13:45:55.212Z,99393.53
2022-11-17T13:48:36.742Z,99381.72
2022-11-17T13:51:38.907Z,99384.56
2022-11-17T13:54:11.857Z,99383.41
2022-11-17T13:56:46.375Z,99391.28
2022-11-17T13:59:31.806Z,99416.38
2022-11-17T14:02:19.944Z,99389.03
2022-11-17T14:05:17.036Z,99400.09
2022-11-17T14:07:45.886Z,99408.81
2022-11-17T14:10:22.600Z,99392.81
2022-11-17T14:12:53.975Z,99407.81
2022-11-17T14:15:28.347Z,99395.47
2022-11-17T14:18:18.828Z,99391.41
2022-11-17T14:20:48.680Z,99397.44
2022-11-17T14:23:17.647Z,99383.41
2022-11-17T14:25:51.381Z,99401.09
2022-11-17T14:28:28.230Z,99403.59
2022-11-17T14:30:57.777Z,99407.09
2022-11-17T14:33:25.724Z,99418.75
2022-11-17T14:35:59.966Z,99403.59
2022-11-17T14:38:26.558Z,99403.06
2022-11-17T14:40:53.962Z,99397.16
2022-11-17T14:43:22.576Z,99410.75
2022-11-17T14:45:50.643Z,99409.94
2022-11-17T14:48:19.691Z,99413.72
2022-11-17T14:50:48.324Z,99413.00
2022-11-17T14:53:15.461Z,99403.91
2022-11-17T14:55:42.302Z,99419.47
2022-11-17T14:58:10.044Z,99417.34
2022-11-17T15:00:37.840Z,99405.97
2022-11-17T15:03:05.100Z,99405.00
2022-11-17T15:05:32.038Z,99410.19
2022-11-17T15:07:58.900Z,99397.84
2022-11-17T15:10:26.250Z,99412.31
2022-11-17T15:12:52.990Z,99411.19
2022-11-17T15:15:20.037Z,99410.47
2022-11-17T15:17:46.637Z,99415.81
2022-11-17T15:20:13.836Z,99414.13
2022-11-17T15:22:40.435Z,99418.75
2022-11-17T15:25:10.582Z,99415.22
2022-11-17T15:27:37.399Z,99414.97
2022-11-17T15:30:05.930Z,99407.09
2022-11-17T15:32:32.603Z,99421.53
2022-11-17T15:35:02.361Z,99434.59
2022-11-17T15:37:28.993Z,99420.16
2022-11-17T15:39:55.736Z,99398.97
2022-11-17T15:42:24.962Z,99425.88
2022-11-17T15:44:51.749Z,99425.75
2022-11-17T15:47:18.336Z,99428.53
2022-11-17T15:49:46.721Z,99419.72
2022-11-17T15:52:13.372Z,99423.91
2022-11-17T15:54:40.099Z,99440.91
2022-11-17T15:57:06.887Z,99425.03
2022-11-17T15:59:33.450Z,99427.72
2022-11-17T16:02:11.034Z,99427.47
2022-11-17T16:04:37.715Z,99416.34
2022-11-17T16:07:07.313Z,99423.91
2022-11-17T16:09:35.284Z,99431.22
2022-11-17T16:12:02.651Z,99436.94
2022-11-17T16:14:29.651Z,99425.03
2022-11-17T16:16:56.930Z,99419.59
2022-11-17T16:19:23.861Z,99426.75
2022-11-17T16:21:51.182Z,99432.31
2022-11-17T16:24:18.001Z,99441.19
2022-11-17T16:26:45.913Z,99422.38
2022-11-17T16:29:12.755Z,99441.88
2022-11-17T16:31:40.503Z,99428.81
2022-11-17T16:34:15.463Z,99427.00
2022-11-17T16:36:47.744Z,99428.53
2022-11-17T16:39:20.285Z,99430.38
2022-11-17T16:41:52.072Z,99424.91
2022-11-17T16:44:19.284Z,99435.00
2022-11-17T16:46:49.645Z,99426.88
2022-11-17T16:49:19.580Z,99424.09
2022-11-17T17:19:04.374Z,99433.88
2022-11-17T17:37:46.541Z,99436.00
2022-11-17T17:40:13.433Z,99442.03
2022-11-17T17:42:40.079Z,99438.38
2022-11-17T17:45:09.982Z,99454.63
2022-11-17T17:47:36.862Z,99455.47
2022-11-17T17:50:03.910Z,99447.75
2022-11-17T18:06:00.969Z,99470.75
2022-11-17T18:11:16.960Z,99476.09
2022-11-17T18:16:33.620Z,99469.22
2022-11-17T18:27:16.891Z,99478.13
2022-11-17T18:29:43.571Z,99480.25
2022-11-17T19:23:24.829Z,99519.78
2022-11-17T19:31:19.740Z,99513.88
2022-11-17T19:33:50.063Z,99517.25
2022-11-17T19:36:34.138Z,99524.97
2022-11-17T19:39:03.390Z,99521.47
2022-11-17T19:41:40.541Z,99521.22
2022-11-17T20:13:47.008Z,99541.78
2022-11-17T20:19:05.246Z,99541.78
2022-11-17T20:53:54.665Z,99576.31
2022-11-17T20:56:21.444Z,99570.16
2022-11-17T20:58:48.787Z,99575.81
2022-11-17T21:01:23.055Z,99578.38
2022-11-17T21:03:49.969Z,99584.41
2022-11-17T21:06:17.667Z,99591.41
2022-11-17T21:08:46.190Z,99586.19
2022-11-17T21:11:40.229Z,99598.44
2022-11-17T21:14:12.367Z,99595.88
2022-11-17T21:16:45.575Z,99588.63
2022-11-17T21:19:14.528Z,99591.53
2022-11-17T21:21:43.162Z,99602.06
2022-11-17T21:24:10.610Z,99597.44
2022-11-17T21:26:38.109Z,99596.72
2022-11-17T21:29:17.233Z,99604.44
2022-11-17T21:31:43.964Z,99613.44
2022-11-17T21:34:17.611Z,99604.72
2022-11-17T21:36:44.491Z,99593.69
2022-11-17T21:39:17.000Z,99612.31
2022-11-17T21:41:44.466Z,99607.72
2022-11-17T21:44:14.011Z,99614.88
2022-11-17T21:46:40.869Z,99607.13
2022-11-17T21:49:07.737Z,99619.19
2022-11-17T21:51:38.721Z,99615.09
2022-11-17T21:54:09.963Z,99618.88
2022-11-17T21:56:37.576Z,99611.47
2022-11-17T21:59:11.606Z,99594.91
2022-11-17T22:01:39.882Z,99606.94
2022-11-17T22:04:06.954Z,99608.22
2022-11-17T22:06:33.896Z,99603.88
2022-11-17T22:09:00.880Z,99610.88
2022-11-17T22:11:37.851Z,99607.66
2022-11-17T22:14:21.114Z,99616.59
2022-11-17T22:16:56.408Z,99619.97
2022-11-17T22:19:27.779Z,99613.09
2022-11-17T22:21:55.338Z,99630.78
2022-11-17T22:24:22.281Z,99636.44
2022-11-17T22:26:49.107Z,99641.91
2022-11-17T22:29:21.939Z,99632.94
2022-11-17T22:31:50.890Z,99631.75
2022-11-17T22:34:19.053Z,99635.41
2022-11-17T22:36:46.147Z,99638.31
2022-11-17T22:39:12.952Z,99631.81
2022-11-17T22:41:40.091Z,99641.34
2022-11-17T22:44:07.064Z,99647.78
2022-11-17T22:46:36.011Z,99651.53
2022-11-17T22:49:03.236Z,99648.16
2022-11-17T22:51:48.559Z,99648.88
2022-11-17T22:54:15.262Z,99657.69
2022-11-17T22:56:42.019Z,99652.81
2022-11-17T22:59:09.313Z,99650.16
2022-11-17T23:01:35.930Z,99654.66
2022-11-17T23:04:02.835Z,99653.94
2022-11-17T23:06:29.555Z,99661.34
2022-11-17T23:08:58.105Z,99655.75
2022-11-17T23:11:42.105Z,99667.38
2022-11-17T23:14:14.040Z,99662.78
2022-11-17T23:16:41.576Z,99659.13
2022-11-17T23:19:13.700Z,99668.94
2022-11-17T23:21:41.299Z,99666.66
2022-11-17T23:24:14.655Z,99679.81
2022-11-17T23:26:42.637Z,99678.88
2022-11-17T23:29:09.565Z,99673.91
2022-11-17T23:31:36.372Z,99677.88
2022-11-17T23:34:03.875Z,99677.03
2022-11-17T23:36:30.546Z,99680.81
2022-11-17T23:38:57.649Z,99689.63
2022-11-17T23:41:24.682Z,99682.47
2022-11-17T23:43:54.264Z,99683.72
2022-11-17T23:46:26.502Z,99690.72
2022-11-17T23:48:57.070Z,99688.19
2022-11-17T23:51:28.702Z,99690.38
2022-11-17T23:54:01.381Z,99689.38
2022-11-17T23:56:34.617Z,99694.84
2022-11-17T23:59:01.390Z,99693.88
